Time;durP1;ratioP1;P1;durP2;ratioP2;P2;SDS_P1;SDS_P2;PMS_P1;PMS_P2;Temp;Humidity;BMP_temperature;BMP_pressure;BME280_temperature;BME280_humidity;BME280_pressure;Samples;Min_cycle;Max_cycle;Signal;HPM_P1;HPM_P2
2021/09/19 00:00:11;;;;;;;1999.90;999.90;;;16.40;99.90;;;;;;5034352;28;20180;-67
2021/09/19 00:02:37;;;;;;;1999.90;999.90;;;16.30;99.90;;;;;;5034182;28;20227;-65
2021/09/19 00:05:03;;;;;;;1999.90;999.90;;;16.30;99.90;;;;;;5033977;28;20491;-66
2021/09/19 00:07:28;;;;;;;1999.90;999.90;;;16.30;99.90;;;;;;5034260;28;20185;-66
2021/09/19 00:09:54;;;;;;;1999.90;999.90;;;16.30;99.90;;;;;;5034073;28;20769;-67
2021/09/19 00:12:20;;;;;;;1999.90;999.90;;;16.30;99.90;;;;;;5034063;28;20250;-66
2021/09/19 00:14:45;;;;;;;1999.90;999.90;;;16.30;99.90;;;;;;5036156;28;20175;-67
2021/09/19 00:17:11;;;;;;;1999.90;999.90;;;16.30;99.90;;;;;;5039200;28;20249;-68
2021/09/19 00:19:37;;;;;;;1999.90;999.90;;;16.30;99.90;;;;;;5039041;28;20247;-67
2021/09/19 00:22:03;;;;;;;1999.90;999.90;;;16.30;99.90;;;;;;5038421;28;20208;-65
2021/09/19 00:24:29;;;;;;;1999.90;999.90;;;16.30;99.90;;;;;;5038860;28;20190;-66
2021/09/19 00:26:54;;;;;;;1999.90;999.90;;;16.20;99.90;;;;;;5039338;28;20421;-67
2021/09/19 00:29:20;;;;;;;1999.90;999.90;;;16.20;99.90;;;;;;5038588;28;20170;-67
2021/09/19 00:31:46;;;;;;;1999.90;999.90;;;16.10;99.90;;;;;;5038464;28;20175;-67
2021/09/19 00:34:11;;;;;;;1999.90;999.90;;;16.10;99.90;;;;;;5038759;28;20214;-67
2021/09/19 00:36:37;;;;;;;1999.90;999.90;;;16.10;99.90;;;;;;5039485;28;20582;-68
2021/09/19 00:39:03;;;;;;;1999.90;999.90;;;16.10;99.90;;;;;;5039453;28;20660;-67
2021/09/19 00:41:28;;;;;;;1999.90;999.90;;;16.00;99.90;;;;;;5039407;28;20200;-67
2021/09/19 00:43:54;;;;;;;1999.90;999.90;;;15.90;99.90;;;;;;5039573;28;20202;-67
2021/09/19 00:46:20;;;;;;;1999.90;999.90;;;15.90;99.90;;;;;;5038937;28;20174;-68
2021/09/19 00:48:45;;;;;;;1999.90;999.90;;;15.80;99.90;;;;;;5038336;28;20172;-66
2021/09/19 00:51:11;;;;;;;1999.90;999.90;;;15.70;99.90;;;;;;5038246;28;20199;-68
2021/09/19 00:53:38;;;;;;;1999.90;999.90;;;15.70;99.90;;;;;;5038120;28;20893;-67
2021/09/19 00:56:06;;;;;;;1999.90;999.90;;;15.60;99.90;;;;;;5038649;28;20174;-67
2021/09/19 00:58:33;;;;;;;1999.90;999.90;;;15.70;99.90;;;;;;5035457;28;20789;-66
2021/09/19 01:01:00;;;;;;;1999.90;999.90;;;15.70;99.90;;;;;;5033206;28;20480;-66
2021/09/19 01:03:29;;;;;;;1999.90;999.90;;;15.70;99.90;;;;;;5033031;28;20887;-68
2021/09/19 01:05:55;;;;;;;1999.90;999.90;;;15.70;99.90;;;;;;5032839;28;20407;-65
2021/09/19 01:08:21;;;;;;;1999.90;999.90;;;15.60;99.90;;;;;;5033027;28;20828;-66
2021/09/19 01:10:47;;;;;;;1999.90;999.90;;;15.60;99.90;;;;;;5033109;28;20406;-66
2021/09/19 01:13:13;;;;;;;1999.90;999.90;;;15.60;99.90;;;;;;5032805;28;21048;-65
2021/09/19 01:15:42;;;;;;;1999.90;999.90;;;15.60;99.90;;;;;;5032689;28;20498;-65
2021/09/19 01:18:09;;;;;;;1999.90;999.90;;;15.60;99.90;;;;;;5032954;28;20410;-66
2021/09/19 01:20:35;;;;;;;1999.90;999.90;;;15.50;99.90;;;;;;5032767;28;20463;-66
2021/09/19 01:23:09;;;;;;;1999.90;999.90;;;15.60;99.90;;;;;;5032619;28;20455;-66
2021/09/19 01:25:35;;;;;;;1999.90;999.90;;;15.60;99.90;;;;;;5032682;28;20403;-66
2021/09/19 01:28:02;;;;;;;1999.90;999.90;;;15.60;99.90;;;;;;5032775;28;20438;-66
2021/09/19 01:30:29;;;;;;;1999.90;999.90;;;15.60;99.90;;;;;;5032664;28;20412;-66
2021/09/19 01:32:55;;;;;;;1999.90;999.90;;;15.60;99.90;;;;;;5032548;28;20795;-66
2021/09/19 01:35:20;;;;;;;1999.90;999.90;;;15.60;99.90;;;;;;5032203;28;20494;-66
2021/09/19 01:37:46;;;;;;;1999.90;999.90;;;15.50;99.90;;;;;;5032537;28;20408;-66
2021/09/19 01:40:13;;;;;;;1999.90;999.90;;;15.50;99.90;;;;;;5032606;28;20170;-66
2021/09/19 01:42:39;;;;;;;1999.90;999.90;;;15.50;99.90;;;;;;5032616;28;20489;-66
2021/09/19 01:45:07;;;;;;;1999.90;999.90;;;15.50;99.90;;;;;;5032204;28;20552;-66
2021/09/19 01:47:32;;;;;;;1999.90;999.90;;;15.40;99.90;;;;;;5032364;28;20410;-67
2021/09/19 01:49:58;;;;;;;1999.90;999.90;;;15.40;99.90;;;;;;5032403;28;20415;-65
2021/09/19 01:52:24;;;;;;;1999.90;999.90;;;15.40;99.90;;;;;;5032233;28;20250;-65
2021/09/19 01:54:50;;;;;;;1999.90;999.90;;;15.40;99.90;;;;;;5032032;28;20320;-65
2021/09/19 01:57:22;;;;;;;1999.90;999.90;;;15.40;99.90;;;;;;5032549;28;20491;-65
2021/09/19 01:59:50;;;;;;;1999.90;999.90;;;15.30;99.90;;;;;;5031981;28;20178;-66
2021/09/19 02:02:16;;;;;;;1999.90;999.90;;;15.30;99.90;;;;;;5032043;28;20458;-66
2021/09/19 02:04:42;;;;;;;1999.90;999.90;;;15.30;99.90;;;;;;5031861;28;20524;-65
2021/09/19 02:07:08;;;;;;;1999.90;999.90;;;15.30;99.90;;;;;;5032132;28;20510;-66
2021/09/19 02:09:34;;;;;;;1999.90;999.90;;;15.30;99.90;;;;;;5032119;28;20567;-66
2021/09/19 02:11:59;;;;;;;1999.90;999.90;;;15.20;99.90;;;;;;5032074;28;20168;-66
2021/09/19 02:14:25;;;;;;;1999.90;999.90;;;15.20;99.90;;;;;;5031647;28;20208;-67
2021/09/19 02:16:50;;;;;;;1999.90;999.90;;;15.20;99.90;;;;;;5031987;28;20168;-65
2021/09/19 02:19:16;;;;;;;1999.90;999.90;;;15.20;99.90;;;;;;5032066;28;20165;-65
2021/09/19 02:21:42;;;;;;;1999.90;999.90;;;15.20;99.90;;;;;;5031876;28;20659;-66
2021/09/19 02:24:08;;;;;;;1999.90;999.90;;;15.10;99.90;;;;;;5031619;28;20719;-66
2021/09/19 02:26:33;;;;;;;1999.90;999.90;;;15.10;99.90;;;;;;5031908;28;20168;-66
2021/09/19 02:28:59;;;;;;;1999.90;999.90;;;15.00;99.90;;;;;;5031930;28;20175;-65
2021/09/19 02:31:24;;;;;;;1999.90;999.90;;;15.00;99.90;;;;;;5032186;28;20248;-66
2021/09/19 02:33:50;;;;;;;1999.90;999.90;;;15.00;99.90;;;;;;5031593;28;20245;-65
2021/09/19 02:36:15;;;;;;;1999.90;999.90;;;14.90;99.90;;;;;;5035214;28;20689;-66
2021/09/19 02:38:41;;;;;;;1999.90;999.90;;;14.90;99.90;;;;;;5035831;28;20223;-67
2021/09/19 02:41:06;;;;;;;1999.90;999.90;;;14.90;99.90;;;;;;5035098;28;20175;-67
2021/09/19 02:43:32;;;;;;;1999.90;999.90;;;14.90;99.90;;;;;;5034117;28;20687;-67
2021/09/19 02:45:58;;;;;;;1999.90;999.90;;;14.80;99.90;;;;;;5034431;28;20172;-66
2021/09/19 02:48:23;;;;;;;1999.90;999.90;;;14.90;99.90;;;;;;5035874;28;20181;-67
2021/09/19 02:50:49;;;;;;;1999.90;999.90;;;14.80;99.90;;;;;;5035105;28;20173;-68
2021/09/19 02:53:15;;;;;;;1999.90;999.90;;;14.90;99.90;;;;;;5035262;28;20191;-67
2021/09/19 02:55:40;;;;;;;1999.90;999.90;;;14.80;99.90;;;;;;5034618;28;20254;-67
2021/09/19 02:58:07;;;;;;;1999.90;999.90;;;14.80;99.90;;;;;;5035576;28;20536;-69
2021/09/19 03:00:32;;;;;;;1999.90;999.90;;;14.80;99.90;;;;;;5035510;28;20226;-70
2021/09/19 03:02:58;;;;;;;1999.90;999.90;;;14.80;99.90;;;;;;5035015;28;20455;-69
2021/09/19 03:05:24;;;;;;;1999.90;999.90;;;14.70;99.90;;;;;;5034440;28;20554;-70
2021/09/19 03:07:53;;;;;;;1999.90;999.90;;;14.70;99.90;;;;;;5034961;28;20162;-70
2021/09/19 03:10:19;;;;;;;1999.90;999.90;;;14.60;99.90;;;;;;5035740;28;20176;-69
2021/09/19 03:12:44;;;;;;;1999.90;999.90;;;14.60;99.90;;;;;;5038350;28;20444;-69
2021/09/19 03:15:11;;;;;;;1999.90;999.90;;;14.60;99.90;;;;;;5038176;28;20164;-70
2021/09/19 03:17:37;;;;;;;1999.90;999.90;;;14.50;99.90;;;;;;5038975;28;20170;-69
2021/09/19 03:20:05;;;;;;;1999.90;999.90;;;14.50;99.90;;;;;;5037954;28;20498;-69
2021/09/19 03:22:30;;;;;;;1999.90;999.90;;;14.40;99.90;;;;;;5038164;28;20247;-70
2021/09/19 03:24:56;;;;;;;1999.90;999.90;;;14.40;99.90;;;;;;5037659;28;20414;-70
2021/09/19 03:27:21;;;;;;;1999.90;999.90;;;14.40;99.90;;;;;;5038072;28;20171;-70
2021/09/19 03:29:47;;;;;;;1999.90;999.90;;;14.40;99.90;;;;;;5038000;28;20171;-70
2021/09/19 03:32:13;;;;;;;1999.90;999.90;;;14.40;99.90;;;;;;5037667;28;20173;-68
2021/09/19 03:34:38;;;;;;;1999.90;999.90;;;14.40;99.90;;;;;;5036935;28;20187;-70
2021/09/19 03:37:04;;;;;;;1999.90;999.90;;;14.40;99.90;;;;;;5037351;28;20522;-70
2021/09/19 03:39:30;;;;;;;1999.90;999.90;;;14.40;99.90;;;;;;5037216;28;20591;-70
2021/09/19 03:41:56;;;;;;;1999.90;999.90;;;14.50;99.90;;;;;;5036670;28;20203;-69
2021/09/19 03:44:21;;;;;;;1999.90;999.90;;;14.40;99.90;;;;;;5076390;23;20227;-67
2021/09/19 03:46:47;;;;;;;1999.90;999.90;;;14.30;99.90;;;;;;5036886;28;20410;-67
2021/09/19 03:49:12;;;;;;;1999.90;999.90;;;14.40;99.90;;;;;;5035923;28;20167;-67
2021/09/19 03:51:38;;;;;;;1999.90;999.90;;;14.40;99.90;;;;;;5036270;28;20168;-67
2021/09/19 03:54:03;;;;;;;1999.90;999.90;;;14.30;99.90;;;;;;5036408;28;20266;-67
2021/09/19 03:56:29;;;;;;;1999.90;999.90;;;14.40;99.90;;;;;;5036166;28;20174;-67
2021/09/19 03:58:56;;;;;;;1999.90;999.90;;;14.30;99.90;;;;;;5036377;28;20172;-67
2021/09/19 04:01:22;;;;;;;1999.90;999.90;;;14.30;99.90;;;;;;5036941;28;20658;-67
2021/09/19 04:03:48;;;;;;;1999.90;999.90;;;14.30;99.90;;;;;;5036959;28;20519;-67
2021/09/19 04:06:14;;;;;;;1999.90;999.90;;;14.20;99.90;;;;;;5036962;28;20413;-69
2021/09/19 04:08:39;;;;;;;1999.90;999.90;;;14.20;99.90;;;;;;5036763;28;20759;-67
2021/09/19 04:11:05;;;;;;;1999.90;999.90;;;14.20;99.90;;;;;;5036494;28;20179;-67
2021/09/19 04:13:31;;;;;;;1999.90;999.90;;;14.20;99.90;;;;;;5036635;28;20607;-67
2021/09/19 04:15:56;;;;;;;1999.90;999.90;;;14.20;99.90;;;;;;5036474;28;20660;-67
2021/09/19 04:18:22;;;;;;;1999.90;999.90;;;14.10;99.90;;;;;;5036778;28;20211;-67
2021/09/19 04:20:48;;;;;;;1999.90;999.90;;;14.10;99.90;;;;;;5036127;28;20179;-67
2021/09/19 04:23:14;;;;;;;1999.90;999.90;;;14.10;99.90;;;;;;5036747;28;20230;-67
2021/09/19 04:25:40;;;;;;;1999.90;999.90;;;14.00;99.90;;;;;;5036754;28;20415;-67
2021/09/19 04:28:05;;;;;;;1999.90;999.90;;;14.00;99.90;;;;;;5036867;28;20164;-67
2021/09/19 04:30:31;;;;;;;1999.90;999.90;;;14.00;99.90;;;;;;5035502;28;20179;-67
2021/09/19 04:32:57;;;;;;;1999.90;999.90;;;14.00;99.90;;;;;;5036561;28;20657;-67
2021/09/19 04:35:22;;;;;;;1999.90;999.90;;;14.00;99.90;;;;;;5036908;28;20176;-67
2021/09/19 04:37:48;;;;;;;1999.90;999.90;;;14.10;99.90;;;;;;5037173;28;20210;-67
2021/09/19 04:40:14;;;;;;;1999.90;999.90;;;14.10;99.90;;;;;;5036811;28;20181;-67
2021/09/19 04:42:40;;;;;;;1999.90;999.90;;;14.10;99.90;;;;;;5037236;28;20719;-67
2021/09/19 04:45:07;;;;;;;1999.90;999.90;;;14.10;99.90;;;;;;5037672;28;20172;-67
2021/09/19 04:47:33;;;;;;;1999.90;999.90;;;14.00;99.90;;;;;;5037119;28;20756;-67
2021/09/19 04:49:58;;;;;;;1999.90;999.90;;;14.10;99.90;;;;;;5037218;28;20401;-67
2021/09/19 04:52:24;;;;;;;1999.90;999.90;;;14.10;99.90;;;;;;5036586;28;20168;-67
2021/09/19 04:54:50;;;;;;;1999.90;999.90;;;14.00;99.90;;;;;;5036772;28;20170;-67
2021/09/19 04:57:15;;;;;;;1999.90;999.90;;;14.00;99.90;;;;;;5036535;28;20172;-67
2021/09/19 04:59:41;;;;;;;1999.90;999.90;;;13.90;99.90;;;;;;5036214;28;20179;-67
2021/09/19 05:02:07;;;;;;;1999.90;999.90;;;13.90;99.90;;;;;;5037164;28;20200;-67
2021/09/19 05:04:33;;;;;;;1999.90;999.90;;;13.90;99.90;;;;;;5036786;28;20238;-67
2021/09/19 05:06:59;;;;;;;1999.90;999.90;;;13.80;99.90;;;;;;5037812;28;20174;-67
2021/09/19 05:09:25;;;;;;;1999.90;999.90;;;13.90;99.90;;;;;;5038010;28;20417;-67
2021/09/19 05:11:50;;;;;;;1999.90;999.90;;;13.80;99.90;;;;;;5037839;28;20493;-67
2021/09/19 05:14:16;;;;;;;1999.90;999.90;;;13.80;99.90;;;;;;5036927;28;20212;-67
2021/09/19 05:16:41;;;;;;;1999.90;999.90;;;13.80;99.90;;;;;;5038139;28;20253;-67
2021/09/19 05:19:07;;;;;;;1999.90;999.90;;;13.80;99.90;;;;;;5038459;28;20172;-67
2021/09/19 05:21:33;;;;;;;1999.90;999.90;;;13.80;99.90;;;;;;5036756;28;20825;-68
2021/09/19 05:23:59;;;;;;;1999.90;999.90;;;13.80;99.90;;;;;;5036897;28;20193;-67
2021/09/19 05:26:25;;;;;;;1999.90;999.90;;;13.80;99.90;;;;;;5038008;28;20809;-67
2021/09/19 05:28:51;;;;;;;1999.90;999.90;;;13.80;99.90;;;;;;5037580;28;20182;-67
2021/09/19 05:31:16;;;;;;;1999.90;999.90;;;13.80;99.90;;;;;;5037313;28;20525;-67
2021/09/19 05:33:42;;;;;;;1999.90;999.90;;;13.80;99.90;;;;;;5033161;28;20192;-66
2021/09/19 05:36:08;;;;;;;1999.90;999.90;;;13.80;99.90;;;;;;5032368;28;20249;-66
2021/09/19 05:38:35;;;;;;;1999.90;999.90;;;13.80;99.90;;;;;;5032886;28;20628;-66
2021/09/19 05:41:00;;;;;;;1999.90;999.90;;;13.80;99.90;;;;;;5032423;28;20399;-66
2021/09/19 05:43:26;;;;;;;1999.90;999.90;;;13.80;99.90;;;;;;5032236;28;20467;-66
2021/09/19 05:45:52;;;;;;;1999.90;999.90;;;13.90;99.90;;;;;;5032177;28;20170;-66
2021/09/19 05:48:17;;;;;;;1999.90;999.90;;;13.90;99.90;;;;;;5032480;28;20626;-66
2021/09/19 05:50:43;;;;;;;1999.90;999.90;;;14.00;99.90;;;;;;5032346;28;20222;-66
2021/09/19 05:53:09;;;;;;;1999.90;999.90;;;14.00;99.90;;;;;;5032308;28;20245;-66
2021/09/19 05:55:34;;;;;;;1999.90;999.90;;;14.00;99.90;;;;;;5031907;28;20403;-66
2021/09/19 05:58:00;;;;;;;1999.90;999.90;;;14.10;99.90;;;;;;5032284;28;20175;-66
2021/09/19 06:00:25;;;;;;;1999.90;999.90;;;14.10;99.90;;;;;;5032237;28;20254;-66
2021/09/19 06:02:51;;;;;;;1999.90;999.90;;;14.20;99.90;;;;;;5032027;28;20688;-66
2021/09/19 06:05:17;;;;;;;1999.90;999.90;;;14.30;99.90;;;;;;5031866;28;20172;-66
2021/09/19 06:07:42;;;;;;;1999.90;999.90;;;14.20;99.90;;;;;;5032141;28;20176;-65
2021/09/19 06:10:08;;;;;;;1999.90;999.90;;;14.30;99.90;;;;;;5031994;28;20185;-66
2021/09/19 06:12:34;;;;;;;1999.90;999.90;;;14.30;99.90;;;;;;5032099;28;20171;-66
2021/09/19 06:15:00;;;;;;;1999.90;999.90;;;14.30;99.90;;;;;;5031746;28;20780;-66
2021/09/19 06:17:26;;;;;;;1999.90;999.90;;;14.40;99.90;;;;;;5032049;28;20496;-66
2021/09/19 06:19:51;;;;;;;1999.90;999.90;;;14.50;99.90;;;;;;5032052;28;20179;-66
2021/09/19 06:22:18;;;;;;;1999.90;999.90;;;14.50;99.90;;;;;;5031739;28;20197;-66
2021/09/19 06:24:44;;;;;;;1999.90;999.90;;;14.50;99.90;;;;;;5031856;28;20210;-66
2021/09/19 06:27:13;;;;;;;1999.90;999.90;;;14.60;99.90;;;;;;5032022;28;20901;-67
2021/09/19 06:29:39;;;;;;;1999.90;999.90;;;14.60;99.90;;;;;;5031639;28;20409;-67
2021/09/19 06:32:07;;;;;;;1999.90;999.90;;;14.70;99.90;;;;;;5031679;28;20415;-66
2021/09/19 06:34:34;;;;;;;1999.90;999.90;;;14.70;99.90;;;;;;5031664;28;20426;-66
2021/09/19 06:37:00;;;;;;;1999.90;999.90;;;14.80;99.90;;;;;;5031705;28;20416;-67
2021/09/19 06:39:26;;;;;;;1999.90;999.90;;;14.80;99.90;;;;;;5031749;28;20905;-66
2021/09/19 06:41:51;;;;;;;1999.90;999.90;;;14.90;99.90;;;;;;5031631;28;20194;-67
2021/09/19 06:44:18;;;;;;;1999.90;999.90;;;14.90;99.90;;;;;;5032389;28;20215;-66
2021/09/19 06:46:44;;;;;;;1999.90;999.90;;;14.90;99.90;;;;;;5035663;28;20181;-66
2021/09/19 06:49:10;;;;;;;1999.90;999.90;;;15.00;99.90;;;;;;5035767;28;20484;-66
2021/09/19 06:51:35;;;;;;;1999.90;999.90;;;15.00;99.90;;;;;;5035628;28;20450;-66
2021/09/19 06:54:01;;;;;;;1999.90;999.90;;;15.00;99.90;;;;;;5037176;28;20205;-67
2021/09/19 06:56:27;;;;;;;1999.90;999.90;;;15.00;99.90;;;;;;5037962;28;20171;-67
2021/09/19 06:58:53;;;;;;;1999.90;999.90;;;15.10;99.90;;;;;;5038397;28;20176;-67
2021/09/19 07:01:21;;;;;;;1999.90;999.90;;;15.10;99.90;;;;;;5038081;28;20399;-67
2021/09/19 07:03:48;;;;;;;1999.90;999.90;;;15.20;99.90;;;;;;5038223;28;20275;-67
2021/09/19 07:06:13;;;;;;;1999.90;999.90;;;15.20;99.90;;;;;;5037496;28;20905;-67
2021/09/19 07:08:39;;;;;;;1999.90;999.90;;;15.40;99.90;;;;;;5037604;28;20429;-67
2021/09/19 07:11:05;;;;;;;1999.90;999.90;;;15.40;99.90;;;;;;5037770;28;20200;-67
2021/09/19 07:13:30;;;;;;;1999.90;999.90;;;15.50;99.90;;;;;;5038041;28;20193;-67
2021/09/19 07:15:56;;;;;;;1999.90;999.90;;;15.50;99.90;;;;;;5037180;28;20630;-67
2021/09/19 07:18:23;;;;;;;1999.90;999.90;;;15.60;99.90;;;;;;5037705;28;20616;-67
2021/09/19 07:20:49;;;;;;;1999.90;999.90;;;15.70;99.90;;;;;;5036114;28;20193;-67
2021/09/19 07:23:15;;;;;;;1999.90;999.90;;;15.70;99.90;;;;;;5036965;28;20466;-67
2021/09/19 07:25:42;;;;;;;1999.90;999.90;;;15.80;99.90;;;;;;5036970;28;20435;-67
2021/09/19 07:28:08;;;;;;;1999.90;999.90;;;15.80;99.90;;;;;;5037288;28;20401;-67
2021/09/19 07:30:34;;;;;;;1999.90;999.90;;;15.80;99.90;;;;;;5038033;28;20401;-67
2021/09/19 07:33:01;;;;;;;1999.90;999.90;;;15.90;99.90;;;;;;5037377;28;20431;-67
2021/09/19 07:35:27;;;;;;;1999.90;999.90;;;16.00;99.90;;;;;;5036901;28;20517;-67
2021/09/19 07:37:53;;;;;;;1999.90;999.90;;;16.10;99.90;;;;;;5037180;28;20493;-67
2021/09/19 07:40:19;;;;;;;1999.90;999.90;;;16.10;99.90;;;;;;5036941;28;20455;-67
2021/09/19 07:42:45;;;;;;;1999.90;999.90;;;16.20;99.90;;;;;;5036498;28;20853;-67
2021/09/19 07:45:12;;;;;;;1999.90;999.90;;;16.30;99.90;;;;;;5036610;28;20413;-67
2021/09/19 07:47:38;;;;;;;1999.90;999.90;;;16.40;99.90;;;;;;5036751;28;20166;-67
2021/09/19 07:50:05;;;;;;;1999.90;999.90;;;16.40;99.90;;;;;;5036668;28;20493;-67
2021/09/19 07:52:30;;;;;;;1999.90;999.90;;;16.50;99.90;;;;;;5036948;28;20405;-67
2021/09/19 07:54:56;;;;;;;1999.90;999.90;;;16.60;99.90;;;;;;5036093;28;20423;-67
2021/09/19 07:57:23;;;;;;;1999.90;999.90;;;16.60;99.90;;;;;;5035426;28;20171;-67
2021/09/19 07:59:50;;;;;;;1999.90;999.90;;;16.60;99.90;;;;;;5036190;28;20219;-67
2021/09/19 08:02:16;;;;;;;1999.90;999.90;;;16.70;99.90;;;;;;5036313;28;20457;-67
2021/09/19 08:04:41;;;;;;;1999.90;999.90;;;16.70;99.90;;;;;;5036095;28;20467;-67
2021/09/19 08:07:07;;;;;;;1999.90;999.90;;;16.80;99.90;;;;;;5035620;28;20207;-67
2021/09/19 08:09:33;;;;;;;1999.90;999.90;;;16.90;99.90;;;;;;5036384;28;20173;-67
2021/09/19 08:11:58;;;;;;;1999.90;999.90;;;16.90;99.90;;;;;;5036005;28;20163;-67
2021/09/19 08:14:24;;;;;;;1999.90;999.90;;;17.00;99.90;;;;;;5035514;28;20763;-67
2021/09/19 08:16:50;;;;;;;1999.90;999.90;;;17.00;99.90;;;;;;5036596;28;20259;-67
2021/09/19 08:19:15;;;;;;;1999.90;999.90;;;17.10;99.90;;;;;;5036034;28;20666;-67
2021/09/19 08:21:41;;;;;;;1999.90;999.90;;;17.20;99.90;;;;;;5036049;28;20203;-67
2021/09/19 08:24:11;;;;;;;1999.90;999.90;;;17.30;99.90;;;;;;5035527;28;20212;-67
2021/09/19 08:26:38;;;;;;;1999.90;999.90;;;17.30;99.90;;;;;;5036090;28;20701;-67
2021/09/19 08:29:04;;;;;;;1999.90;999.90;;;17.40;99.90;;;;;;5035467;28;20892;-67
2021/09/19 08:31:30;;;;;;;1999.90;999.90;;;17.40;99.90;;;;;;5034946;28;20411;-67
2021/09/19 08:33:56;;;;;;;1999.90;999.90;;;17.50;99.90;;;;;;5034567;28;20430;-67
2021/09/19 08:36:21;;;;;;;1999.90;999.90;;;17.50;99.90;;;;;;5034907;28;20161;-67
2021/09/19 08:38:47;;;;;;;1999.90;999.90;;;17.50;99.90;;;;;;5035600;28;20156;-66
2021/09/19 08:41:16;;;;;;;1999.90;999.90;;;17.60;99.90;;;;;;5030774;28;20180;-66
2021/09/19 08:43:43;;;;;;;1999.90;999.90;;;17.60;99.90;;;;;;5032868;28;20225;-66
2021/09/19 08:46:10;;;;;;;1999.90;999.90;;;17.60;99.90;;;;;;5032061;28;20426;-66
2021/09/19 08:48:38;;;;;;;1999.90;999.90;;;17.70;99.90;;;;;;5033138;28;20390;-66
2021/09/19 08:51:04;;;;;;;1999.90;999.90;;;17.80;99.90;;;;;;5033056;28;20915;-67
2021/09/19 08:53:31;;;;;;;1999.90;999.90;;;17.90;99.90;;;;;;5039286;28;20432;-67
2021/09/19 08:55:58;;;;;;;1999.90;999.90;;;18.00;99.90;;;;;;5036838;28;20414;-67
2021/09/19 08:58:23;;;;;;;1999.90;999.90;;;18.10;99.90;;;;;;5033185;28;20395;-67
2021/09/19 09:00:49;;;;;;;1999.90;999.90;;;18.30;99.90;;;;;;5035054;28;20420;-67
2021/09/19 09:03:24;;;;;;;1999.90;999.90;;;18.40;99.90;;;;;;5034891;28;20689;-67
2021/09/19 09:05:54;;;;;;;1999.90;999.90;;;18.40;99.90;;;;;;5031636;28;20403;-66
2021/09/19 09:08:20;;;;;;;1999.90;999.90;;;18.40;99.90;;;;;;5031238;28;20916;-67
2021/09/19 09:10:48;;;;;;;1999.90;999.90;;;18.60;99.90;;;;;;5030855;28;20413;-66
2021/09/19 09:13:17;;;;;;;1999.90;999.90;;;18.60;99.90;;;;;;5030901;28;20802;-67
2021/09/19 09:15:49;;;;;;;1999.90;999.90;;;18.70;99.90;;;;;;5031460;28;20413;-68
2021/09/19 09:18:31;;;;;;;1999.90;999.90;;;18.80;99.90;;;;;;5031075;28;20411;-67
2021/09/19 09:21:06;;;;;;;1999.90;999.90;;;18.90;99.90;;;;;;5031122;28;20821;-66
2021/09/19 09:23:38;;;;;;;1999.90;999.90;;;19.00;99.90;;;;;;5030823;28;20548;-67
2021/09/19 09:26:10;;;;;;;1999.90;999.90;;;19.10;99.90;;;;;;5030365;28;20402;-67
2021/09/19 09:28:46;;;;;;;1999.90;999.90;;;19.20;99.90;;;;;;5030752;28;20412;-67
2021/09/19 09:31:18;;;;;;;1999.90;999.90;;;19.30;99.90;;;;;;5030731;28;20467;-67
2021/09/19 09:33:57;;;;;;;1999.90;999.90;;;19.30;99.90;;;;;;5030087;28;20433;-67
2021/09/19 09:36:36;;;;;;;1999.90;999.90;;;19.30;99.90;;;;;;5030854;28;20423;-66
2021/09/19 09:39:33;;;;;;;1999.90;999.90;;;19.40;99.90;;;;;;5030283;28;20413;-67
2021/09/19 09:42:18;;;;;;;1999.90;999.90;;;19.50;99.90;;;;;;5030348;28;20454;-69
2021/09/19 09:44:46;;;;;;;1999.90;999.90;;;19.60;99.90;;;;;;5030265;28;20426;-69
2021/09/19 09:47:16;;;;;;;1999.90;999.90;;;19.70;99.90;;;;;;5029224;28;20473;-65
2021/09/19 09:49:49;;;;;;;1999.90;999.90;;;19.80;99.90;;;;;;5030287;28;20410;-68
2021/09/19 09:52:18;;;;;;;1999.90;999.90;;;19.90;99.90;;;;;;5030266;28;20439;-67
2021/09/19 09:54:51;;;;;;;1999.90;999.90;;;20.00;99.90;;;;;;5029010;28;20933;-67
2021/09/19 09:57:40;;;;;;;1999.90;999.90;;;20.10;99.90;;;;;;5030120;28;20436;-67
2021/09/19 10:00:15;;;;;;;1999.90;999.90;;;20.20;99.90;;;;;;5026796;28;20457;-68
2021/09/19 10:02:47;;;;;;;1999.90;999.90;;;20.40;99.90;;;;;;5029468;28;20544;-68
2021/09/19 10:05:14;;;;;;;1999.90;999.90;;;20.50;99.90;;;;;;5027911;28;20506;-67
2021/09/19 10:07:41;;;;;;;1999.90;999.90;;;20.60;99.90;;;;;;5029904;28;20869;-68
2021/09/19 10:10:09;;;;;;;1999.90;999.90;;;20.70;99.90;;;;;;5029605;28;20414;-68
2021/09/19 10:12:35;;;;;;;1999.90;999.90;;;20.80;99.90;;;;;;5029866;28;21024;-66
2021/09/19 10:15:02;;;;;;;1999.90;999.90;;;20.80;99.90;;;;;;5029634;28;20415;-66
2021/09/19 10:17:28;;;;;;;1999.90;999.90;;;20.90;99.90;;;;;;5029626;28;20769;-66
2021/09/19 10:19:55;;;;;;;1999.90;999.90;;;21.10;99.90;;;;;;5030037;28;20411;-66
2021/09/19 10:22:25;;;;;;;1999.90;999.90;;;21.20;99.90;;;;;;5029670;28;20457;-67
2021/09/19 10:24:51;;;;;;;1999.90;999.90;;;21.30;99.90;;;;;;5017587;28;20447;-67
2021/09/19 10:27:23;;;;;;;1999.90;999.90;;;21.40;99.90;;;;;;5030016;28;20407;-67
2021/09/19 10:30:18;;;;;;;1999.90;999.90;;;21.50;99.90;;;;;;5029788;28;20206;-67
2021/09/19 10:32:45;;;;;;;1999.90;999.90;;;21.60;99.90;;;;;;5028165;28;20442;-67
2021/09/19 10:35:11;;;;;;;1999.90;999.90;;;21.70;99.90;;;;;;5029618;28;20415;-69
2021/09/19 10:37:51;;;;;;;1999.90;999.90;;;21.70;99.90;;;;;;5029871;28;20927;-68
2021/09/19 10:40:37;;;;;;;1999.90;999.90;;;21.80;99.90;;;;;;5029375;28;20203;-66
2021/09/19 10:43:14;;;;;;;1999.90;999.90;;;21.90;99.90;;;;;;5029531;28;20485;-66
2021/09/19 10:45:45;;;;;;;1999.90;999.90;;;22.00;99.90;;;;;;5028037;28;20486;-67
2021/09/19 10:48:10;;;;;;;1999.90;999.90;;;22.20;99.90;;;;;;5028949;28;20490;-67
2021/09/19 10:50:36;;;;;;;1999.90;999.90;;;22.30;99.90;;;;;;5029252;28;20449;-67
2021/09/19 10:53:25;;;;;;;1999.90;999.90;;;22.30;99.90;;;;;;5029031;28;20212;-67
2021/09/19 10:55:51;;;;;;;1999.90;999.90;;;22.40;99.90;;;;;;5029144;28;20404;-67
2021/09/19 10:58:26;;;;;;;1999.90;999.90;;;22.50;99.90;;;;;;5029596;28;20894;-67
2021/09/19 11:01:09;;;;;;;1999.90;999.90;;;22.60;99.90;;;;;;5029225;28;20756;-67
2021/09/19 11:03:35;;;;;;;1999.90;999.90;;;22.80;99.90;;;;;;5029337;28;20976;-67
2021/09/19 11:06:01;;;;;;;1999.90;999.90;;;23.00;99.90;;;;;;5029390;28;20845;-67
2021/09/19 11:08:28;;;;;;;1999.90;999.90;;;23.00;99.90;;;;;;5028832;28;20428;-66
2021/09/19 11:10:58;;;;;;;1999.90;999.90;;;23.00;99.90;;;;;;5033015;28;20175;-67
2021/09/19 11:13:55;;;;;;;1999.90;999.90;;;23.10;99.90;;;;;;5034532;28;20474;-67
2021/09/19 11:16:34;;;;;;;1999.90;999.90;;;23.00;99.90;;;;;;5034778;28;20453;-66
2021/09/19 11:19:06;;;;;;;1999.90;999.90;;;23.00;99.90;;;;;;5035559;28;20510;-67
2021/09/19 11:21:40;;;;;;;1999.90;999.90;;;23.10;99.90;;;;;;5036608;28;20406;-67
2021/09/19 11:24:09;;;;;;;1999.90;999.90;;;23.20;99.90;;;;;;5035495;28;20389;-67
2021/09/19 11:26:38;;;;;;;1999.90;999.90;;;23.50;99.90;;;;;;5037123;28;20388;-67
2021/09/19 11:29:07;;;;;;;1999.90;999.90;;;23.90;99.90;;;;;;5037253;28;20438;-67
2021/09/19 11:31:33;;;;;;;1999.90;999.90;;;24.20;99.90;;;;;;5037608;28;20504;-68
2021/09/19 11:34:02;;;;;;;1999.90;999.90;;;24.50;99.90;;;;;;5041956;28;20466;-67
2021/09/19 11:36:31;;;;;;;1999.90;999.90;;;25.00;99.90;;;;;;5043126;28;20378;-67
2021/09/19 11:38:57;;;;;;;1999.90;999.90;;;25.70;99.90;;;;;;5041521;28;20386;-67
2021/09/19 11:41:23;;;;;;;1999.90;999.90;;;26.60;99.90;;;;;;5041481;28;20380;-67
2021/09/19 11:43:52;;;;;;;1999.90;999.90;;;27.50;99.90;;;;;;5038652;28;20626;-68
2021/09/19 11:46:22;;;;;;;1999.90;999.90;;;28.50;99.90;;;;;;5036841;28;20438;-67
2021/09/19 11:48:48;;;;;;;1999.90;999.90;;;29.50;99.90;;;;;;5036825;28;20487;-67
2021/09/19 11:51:16;;;;;;;1999.90;999.90;;;30.40;99.90;;;;;;5036470;28;20474;-67
2021/09/19 11:53:50;;;;;;;1999.90;999.90;;;30.70;90.10;;;;;;5035583;28;20422;-67
2021/09/19 11:56:17;;;;;;;1999.90;999.90;;;31.30;91.20;;;;;;5035359;28;20394;-68
2021/09/19 11:58:44;;;;;;;1999.90;999.90;;;31.70;73.70;;;;;;5035597;28;20761;-68